Time;durP1;ratioP1;P1;durP2;ratioP2;P2;SDS_P1;SDS_P2;PMS_P1;PMS_P2;Temp;Humidity;BMP_temperature;BMP_pressure;BME280_temperature;BME280_humidity;BME280_pressure;Samples;Min_cycle;Max_cycle;Signal;HPM_P1;HPM_P2
2023/03/10 00:00:51;;;;;;;23.43;11.90;;;;;;;41.69;31.88;101000.31;6125587;23;20358;-85
2023/03/10 00:03:17;;;;;;;28.27;15.07;;;;;;;41.54;32.21;100998.13;6125735;23;20371;-88
2023/03/10 00:05:43;;;;;;;22.97;14.40;;;;;;;41.57;31.72;100998.28;6099563;23;20507;-78
2023/03/10 00:08:09;;;;;;;20.70;14.00;;;;;;;41.55;31.56;100994.28;6099796;23;20476;-83
2023/03/10 00:10:36;;;;;;;27.03;12.90;;;;;;;41.66;31.60;100992.78;6125765;23;20496;-86
2023/03/10 00:13:02;;;;;;;24.97;12.03;;;;;;;41.61;31.38;100976.63;6125265;23;20408;-86
2023/03/10 00:15:28;;;;;;;25.63;12.70;;;;;;;41.60;31.50;100964.13;6125660;23;20434;-80
2023/03/10 00:17:54;;;;;;;22.73;12.97;;;;;;;41.67;31.38;100961.69;6125610;23;20878;-86
2023/03/10 00:20:22;;;;;;;27.73;13.30;;;;;;;41.52;31.44;100954.09;6099458;23;20386;-89
2023/03/10 00:22:48;;;;;;;20.27;10.20;;;;;;;41.48;31.28;100945.78;6099253;23;20414;-84
2023/03/10 00:25:17;;;;;;;22.53;12.00;;;;;;;41.43;31.61;100945.97;6099545;23;20386;-86
2023/03/10 00:27:43;;;;;;;16.90;10.87;;;;;;;41.22;31.94;100945.09;6099341;23;20924;-87
2023/03/10 00:30:09;;;;;;;20.63;11.27;;;;;;;41.15;32.04;100944.81;6099327;23;20416;-84
2023/03/10 00:32:35;;;;;;;24.03;11.97;;;;;;;41.21;32.22;100933.41;6099495;23;20519;-87
2023/03/10 00:35:01;;;;;;;18.90;10.93;;;;;;;41.24;32.12;100930.00;6123771;23;20489;-87
2023/03/10 00:37:27;;;;;;;26.70;10.17;;;;;;;41.23;31.86;100928.41;6099074;23;20410;-87
2023/03/10 00:39:54;;;;;;;23.63;12.47;;;;;;;40.95;31.92;100917.19;6099076;23;20400;-86
2023/03/10 00:42:20;;;;;;;13.60;9.40;;;;;;;41.06;32.11;100909.44;6099344;23;20731;-87
2023/03/10 00:44:47;;;;;;;21.07;10.30;;;;;;;40.95;32.16;100894.63;6099263;23;20425;-84
2023/03/10 00:47:13;;;;;;;17.83;10.47;;;;;;;41.01;32.20;100893.31;6099206;23;20464;-84
2023/03/10 00:49:39;;;;;;;21.00;12.97;;;;;;;40.85;32.73;100882.16;6123584;23;20382;-87
2023/03/10 00:52:05;;;;;;;18.73;10.57;;;;;;;40.83;32.59;100870.00;6125071;23;20545;-86
2023/03/10 00:54:31;;;;;;;25.63;12.60;;;;;;;40.81;32.76;100870.31;6099188;23;20448;-86
2023/03/10 00:56:57;;;;;;;23.43;12.37;;;;;;;40.88;32.98;100867.09;6099346;23;20410;-86
2023/03/10 00:59:23;;;;;;;22.33;12.40;;;;;;;40.72;33.59;100869.56;6099178;23;20704;-85
2023/03/10 01:01:49;;;;;;;20.63;11.17;;;;;;;40.77;33.34;100866.66;6099437;23;20378;-84
2023/03/10 01:04:17;;;;;;;19.13;10.80;;;;;;;40.75;33.08;100864.25;6125155;23;20439;-85
2023/03/10 01:06:46;;;;;;;22.63;11.30;;;;;;;40.80;32.87;100868.72;6123703;23;20378;-88
2023/03/10 01:09:12;;;;;;;22.77;12.13;;;;;;;40.65;33.32;100864.63;6125539;23;20429;-86
2023/03/10 01:11:39;;;;;;;21.80;11.10;;;;;;;40.60;33.24;100848.47;6099190;23;20767;-87
2023/03/10 01:14:07;;;;;;;21.77;13.43;;;;;;;40.61;33.05;100849.28;6099128;23;20810;-86
2023/03/10 01:16:33;;;;;;;25.33;14.27;;;;;;;40.42;33.35;100836.84;6099047;23;20378;-83
2023/03/10 01:18:59;;;;;;;22.00;13.03;;;;;;;40.46;33.48;100837.00;6098890;23;20392;-84
2023/03/10 01:21:28;;;;;;;19.57;13.07;;;;;;;40.52;33.44;100831.09;6125416;23;20370;-86
2023/03/10 01:23:55;;;;;;;20.63;12.87;;;;;;;40.65;33.02;100833.91;6123077;23;20772;-87
2023/03/10 01:26:21;;;;;;;17.77;11.77;;;;;;;40.53;33.36;100826.44;6123547;23;20412;-87
2023/03/10 01:28:48;;;;;;;18.67;10.53;;;;;;;40.65;32.91;100833.91;6098837;23;20387;-86
2023/03/10 01:31:14;;;;;;;16.97;10.80;;;;;;;40.60;32.78;100820.50;6123540;23;20488;-87
2023/03/10 01:33:41;;;;;;;21.07;9.97;;;;;;;40.62;33.01;100813.59;6099065;23;20382;-84
2023/03/10 01:36:14;;;;;;;20.30;13.93;;;;;;;40.61;33.06;100808.50;6099033;23;20402;-86
2023/03/10 01:38:40;;;;;;;28.37;11.60;;;;;;;40.76;32.78;100799.78;6125052;23;20428;-86
2023/03/10 01:41:07;;;;;;;17.20;9.50;;;;;;;40.76;33.06;100794.34;6123305;23;20372;-83
2023/03/10 01:43:38;;;;;;;18.13;11.73;;;;;;;40.56;33.74;100790.44;6099076;23;20465;-87
2023/03/10 01:46:26;;;;;;;19.37;10.23;;;;;;;40.60;33.79;100788.66;6099054;23;20409;-87
2023/03/10 01:48:54;;;;;;;16.50;10.27;;;;;;;40.66;33.87;100787.34;6099142;23;20461;-87
2023/03/10 01:51:20;;;;;;;20.60;11.10;;;;;;;40.70;33.83;100782.03;6100754;23;20888;-87
2023/03/10 01:53:46;;;;;;;15.57;10.37;;;;;;;40.62;34.10;100780.97;6101238;23;20866;-87
2023/03/10 01:56:13;;;;;;;20.37;11.53;;;;;;;40.79;33.74;100786.31;6099944;23;20462;-86
2023/03/10 01:58:43;;;;;;;20.97;12.63;;;;;;;40.70;33.80;100782.88;6100617;23;20389;-87
2023/03/10 02:01:10;;;;;;;20.23;10.37;;;;;;;40.69;33.74;100778.53;6100627;23;20394;-86
2023/03/10 02:03:52;;;;;;;16.53;9.70;;;;;;;40.71;33.91;100776.31;6100271;23;20746;-86
2023/03/10 02:06:20;;;;;;;18.93;11.27;;;;;;;40.55;34.37;100769.81;6100724;23;20386;-80
2023/03/10 02:08:52;;;;;;;24.70;10.50;;;;;;;40.56;34.31;100768.69;6100764;23;20873;-87
2023/03/10 02:11:19;;;;;;;22.83;11.50;;;;;;;40.70;34.13;100768.44;6100126;23;20942;-87
2023/03/10 02:13:45;;;;;;;24.60;11.93;;;;;;;40.51;34.93;100766.13;6124438;23;20399;-87
2023/03/10 02:16:12;;;;;;;31.90;12.07;;;;;;;40.47;34.69;100763.28;6100297;23;20397;-86
2023/03/10 02:18:43;;;;;;;23.13;12.00;;;;;;;40.53;34.87;100761.19;6125232;23;20394;-88
2023/03/10 02:21:38;;;;;;;24.27;12.50;;;;;;;40.47;35.00;100754.31;6100583;23;20476;-86
2023/03/10 02:24:27;;;;;;;20.63;12.63;;;;;;;40.44;35.05;100749.50;6100303;23;20393;-82
2023/03/10 02:26:59;;;;;;;25.87;12.47;;;;;;;40.58;34.94;100752.84;6124861;23;20390;-87
2023/03/10 02:29:41;;;;;;;22.80;13.57;;;;;;;40.67;34.65;100758.25;6126631;23;20385;-86
2023/03/10 02:32:07;;;;;;;27.67;13.70;;;;;;;40.79;34.98;100750.19;6099793;23;20452;-83
2023/03/10 02:34:33;;;;;;;17.67;11.20;;;;;;;40.72;34.49;100739.81;6099848;23;20409;-79
2023/03/10 02:36:59;;;;;;;19.53;10.73;;;;;;;40.79;34.58;100731.94;6097932;23;20386;-78
2023/03/10 02:39:25;;;;;;;17.53;11.20;;;;;;;40.51;34.87;100725.34;6126295;23;20362;-78
2023/03/10 02:41:52;;;;;;;22.07;11.40;;;;;;;40.61;35.23;100722.28;6100311;23;20389;-79
2023/03/10 02:44:20;;;;;;;26.07;12.60;;;;;;;40.68;35.02;100725.28;6124697;23;20386;-78
2023/03/10 02:46:46;;;;;;;22.07;11.97;;;;;;;40.60;35.10;100728.84;6100294;23;20386;-81
2023/03/10 02:49:12;;;;;;;27.50;12.10;;;;;;;40.62;35.38;100725.78;6100499;23;20855;-79
2023/03/10 02:51:42;;;;;;;26.13;15.93;;;;;;;40.54;35.11;100728.22;6124693;23;20433;-78
2023/03/10 02:54:09;;;;;;;21.67;13.47;;;;;;;40.46;35.49;100723.63;6103217;23;20390;-79
2023/03/10 02:56:36;;;;;;;27.57;14.40;;;;;;;40.48;35.48;100726.81;6154225;23;20377;-78
2023/03/10 02:59:05;;;;;;;32.77;16.87;;;;;;;40.56;35.48;100738.78;6154237;23;20381;-84
2023/03/10 03:01:31;;;;;;;24.50;14.70;;;;;;;40.68;35.52;100733.44;6153638;23;20452;-84
2023/03/10 03:03:57;;;;;;;25.40;17.17;;;;;;;40.67;35.17;100726.41;6155901;23;20385;-83
2023/03/10 03:06:25;;;;;;;31.13;18.20;;;;;;;40.66;35.29;100732.19;6129690;23;20406;-83
2023/03/10 03:08:51;;;;;;;36.93;20.77;;;;;;;40.55;35.08;100726.31;6129572;23;20785;-83
2023/03/10 03:11:17;;;;;;;37.40;23.50;;;;;;;40.53;35.38;100717.69;6129532;23;20512;-83
2023/03/10 03:13:43;;;;;;;43.37;28.40;;;;;;;40.49;35.06;100722.97;6129101;23;20761;-84
2023/03/10 03:16:09;;;;;;;41.20;32.23;;;;;;;40.39;35.74;100717.06;6129717;23;20392;-83
2023/03/10 03:18:36;;;;;;;38.13;29.43;;;;;;;40.47;35.40;100713.53;6129112;23;20401;-86
2023/03/10 03:21:04;;;;;;;44.83;27.00;;;;;;;40.54;35.13;100716.56;6129603;23;20388;-83
2023/03/10 03:23:30;;;;;;;34.53;25.80;;;;;;;40.53;35.22;100723.91;6129382;23;20405;-84
2023/03/10 03:25:56;;;;;;;26.27;19.13;;;;;;;40.55;35.20;100726.31;6155978;23;20702;-84
2023/03/10 03:28:22;;;;;;;27.13;15.77;;;;;;;40.31;35.88;100724.16;6129475;23;20862;-84
2023/03/10 03:30:48;;;;;;;20.33;11.23;;;;;;;40.46;35.66;100725.53;6155154;23;20433;-81
2023/03/10 03:33:14;;;;;;;22.63;14.10;;;;;;;40.58;35.03;100722.94;6155561;23;20831;-82
2023/03/10 03:35:42;;;;;;;25.67;15.03;;;;;;;40.55;35.33;100716.22;6129186;23;20405;-78
2023/03/10 03:38:08;;;;;;;20.50;11.90;;;;;;;40.49;35.37;100711.31;6153641;23;20961;-79
2023/03/10 03:40:35;;;;;;;28.40;13.57;;;;;;;40.54;35.32;100717.34;6129121;23;20446;-79
2023/03/10 03:43:03;;;;;;;21.57;13.47;;;;;;;40.48;35.30;100712.44;6153740;23;20423;-78
2023/03/10 03:45:32;;;;;;;25.80;14.07;;;;;;;40.50;35.28;100705.53;6103406;23;20595;-79
2023/03/10 03:48:16;;;;;;;19.90;12.27;;;;;;;40.60;34.77;100700.84;6122617;23;20375;-82
2023/03/10 03:50:42;;;;;;;23.93;11.83;;;;;;;40.57;35.14;100691.41;6099204;23;20438;-82
2023/03/10 03:53:08;;;;;;;23.97;11.83;;;;;;;40.70;34.84;100681.44;6099882;23;20401;-87
2023/03/10 03:55:33;;;;;;;21.30;13.20;;;;;;;40.68;35.23;100683.69;6099684;23;20480;-88
2023/03/10 03:57:59;;;;;;;23.37;16.20;;;;;;;40.52;35.28;100686.19;6099481;23;20390;-82
2023/03/10 04:00:25;;;;;;;26.90;13.00;;;;;;;40.34;35.40;100680.03;6099714;23;20397;-84
2023/03/10 04:02:51;;;;;;;36.93;15.30;;;;;;;40.41;35.50;100680.28;6125918;23;20410;-83
2023/03/10 04:05:17;;;;;;;37.80;16.27;;;;;;;40.18;35.68;100668.88;6099681;23;20386;-82
2023/03/10 04:07:44;;;;;;;49.57;16.80;;;;;;;40.28;35.44;100663.09;6125469;23;20433;-78
2023/03/10 04:10:13;;;;;;;30.43;18.43;;;;;;;40.50;34.96;100661.25;6125907;23;20367;-78
2023/03/10 04:12:39;;;;;;;32.20;15.20;;;;;;;40.67;34.94;100655.69;6099279;23;20743;-78
2023/03/10 04:15:07;;;;;;;31.40;15.00;;;;;;;40.63;34.69;100648.53;6099422;23;20858;-78
2023/03/10 04:17:33;;;;;;;25.30;14.40;;;;;;;40.57;34.88;100644.41;6099516;23;20393;-78
2023/03/10 04:19:59;;;;;;;40.20;19.37;;;;;;;40.74;34.81;100655.97;6099268;23;20449;-78
2023/03/10 04:22:25;;;;;;;27.33;11.63;;;;;;;40.53;34.95;100655.16;6099264;23;20390;-80
2023/03/10 04:24:52;;;;;;;33.67;14.50;;;;;;;40.32;35.08;100662.44;6099322;23;20424;-78
2023/03/10 04:27:19;;;;;;;14.07;10.03;;;;;;;40.60;34.79;100671.75;6099248;23;20401;-78
2023/03/10 04:29:45;;;;;;;26.87;11.83;;;;;;;40.68;34.44;100679.03;6099295;23;20425;-84
2023/03/10 04:32:11;;;;;;;21.70;11.13;;;;;;;40.84;34.53;100687.44;6098987;23;20449;-78
2023/03/10 04:34:37;;;;;;;24.00;12.20;;;;;;;40.31;34.76;100688.81;6098989;23;20437;-81
2023/03/10 04:37:03;;;;;;;17.03;11.57;;;;;;;40.38;34.82;100694.53;6099390;23;20457;-84
2023/03/10 04:39:29;;;;;;;18.83;10.30;;;;;;;40.48;34.80;100707.00;6099269;23;20394;-83
2023/03/10 04:41:55;;;;;;;18.93;10.87;;;;;;;40.43;34.47;100707.16;6125568;23;20437;-87
2023/03/10 04:44:21;;;;;;;21.10;9.93;;;;;;;40.55;34.42;100707.28;6135767;23;20483;-87
2023/03/10 04:46:47;;;;;;;18.63;10.70;;;;;;;40.52;34.50;100707.94;6128470;23;20842;-86
2023/03/10 04:49:14;;;;;;;24.57;9.50;;;;;;;40.42;34.32;100709.06;6154643;23;20358;-86
2023/03/10 04:51:41;;;;;;;20.83;8.93;;;;;;;40.77;34.51;100715.16;6154893;23;20409;-86
2023/03/10 04:54:07;;;;;;;18.40;9.37;;;;;;;40.73;34.65;100716.13;6128662;23;20404;-87
2023/03/10 04:56:33;;;;;;;15.10;8.93;;;;;;;40.93;34.47;100723.53;6127987;23;20384;-87
2023/03/10 04:58:59;;;;;;;20.10;9.13;;;;;;;41.05;33.96;100714.66;6128330;23;20377;-84
2023/03/10 05:01:28;;;;;;;23.43;10.40;;;;;;;40.96;34.14;100719.38;6128253;23;20381;-87
2023/03/10 05:03:54;;;;;;;24.07;9.67;;;;;;;41.07;34.09;100718.66;6128733;23;20440;-83
2023/03/10 05:06:21;;;;;;;20.03;12.10;;;;;;;41.00;34.34;100721.09;6154598;23;20365;-86
2023/03/10 05:08:47;;;;;;;25.03;11.63;;;;;;;40.96;34.86;100724.81;6128758;23;20754;-87
2023/03/10 05:11:13;;;;;;;15.23;9.63;;;;;;;40.77;34.41;100733.41;6128427;23;20913;-86
2023/03/10 05:13:39;;;;;;;19.63;9.57;;;;;;;40.84;34.85;100727.44;6154456;23;20381;-81
2023/03/10 05:16:12;;;;;;;15.67;9.53;;;;;;;40.77;34.88;100723.31;6128216;23;20373;-83
2023/03/10 05:18:38;;;;;;;16.80;9.40;;;;;;;40.85;34.66;100727.09;6128319;23;20516;-87
2023/03/10 05:21:04;;;;;;;18.30;10.43;;;;;;;40.93;34.51;100711.88;6128196;23;20409;-84
2023/03/10 05:23:30;;;;;;;15.10;11.57;;;;;;;40.81;34.67;100716.06;6154583;23;20362;-87
2023/03/10 05:25:56;;;;;;;20.03;10.23;;;;;;;40.70;35.12;100722.22;6128075;23;20388;-90
2023/03/10 05:28:22;;;;;;;17.33;8.87;;;;;;;40.96;34.34;100728.34;6127728;23;20443;-78
2023/03/10 05:30:49;;;;;;;24.33;10.37;;;;;;;40.91;34.99;100725.81;6103841;23;20818;-78
2023/03/10 05:33:15;;;;;;;20.90;10.07;;;;;;;40.70;34.64;100731.19;6128187;23;20380;-81
2023/03/10 05:35:44;;;;;;;22.43;9.43;;;;;;;40.66;34.71;100722.09;6127226;23;20898;-77
2023/03/10 05:38:10;;;;;;;26.97;9.83;;;;;;;40.52;35.57;100725.06;6127088;23;20389;-78
2023/03/10 05:40:36;;;;;;;18.33;9.77;;;;;;;40.45;35.60;100724.72;6127544;23;20517;-77
2023/03/10 05:43:01;;;;;;;21.50;9.40;;;;;;;40.52;34.49;100729.69;6128052;23;20483;-77
2023/03/10 05:45:27;;;;;;;15.47;8.70;;;;;;;40.55;34.81;100737.19;6103467;23;20450;-77
2023/03/10 05:47:53;;;;;;;20.40;9.93;;;;;;;40.50;35.05;100737.34;6098554;23;20386;-77
2023/03/10 05:50:19;;;;;;;14.70;8.67;;;;;;;40.81;34.57;100737.81;6098380;23;20413;-79
2023/03/10 05:52:45;;;;;;;18.87;8.90;;;;;;;40.84;34.44;100744.56;6098790;23;20508;-76
2023/03/10 05:55:15;;;;;;;22.83;10.53;;;;;;;40.92;34.17;100748.38;6074922;23;20391;-77
2023/03/10 05:57:41;;;;;;;19.60;10.30;;;;;;;40.72;34.70;100747.19;6098755;23;20945;-77
2023/03/10 06:00:09;;;;;;;24.27;10.43;;;;;;;40.47;35.66;100743.44;6098726;23;20445;-78
2023/03/10 06:02:37;;;;;;;23.90;11.17;;;;;;;40.66;35.06;100746.56;6098926;23;20385;-80
2023/03/10 06:05:06;;;;;;;16.03;9.20;;;;;;;40.52;35.13;100754.16;6098629;23;20461;-79
2023/03/10 06:07:32;;;;;;;18.67;7.87;;;;;;;40.71;35.09;100754.53;6098698;23;20394;-78
2023/03/10 06:09:58;;;;;;;12.60;8.70;;;;;;;40.48;35.07;100759.44;6098698;23;20394;-78
2023/03/10 06:12:24;;;;;;;20.10;9.80;;;;;;;40.77;35.17;100764.09;6124723;23;20440;-80
2023/03/10 06:14:50;;;;;;;22.50;9.57;;;;;;;40.64;35.30;100765.16;6098205;23;20421;-77
2023/03/10 06:17:16;;;;;;;18.33;9.60;;;;;;;40.68;35.51;100763.34;6099031;23;20397;-87
2023/03/10 06:19:42;;;;;;;20.43;10.10;;;;;;;40.59;35.63;100765.31;6098643;23;20750;-80
2023/03/10 06:22:08;;;;;;;18.23;7.30;;;;;;;40.83;35.08;100766.66;6098563;23;20797;-82
2023/03/10 06:24:34;;;;;;;27.20;8.90;;;;;;;40.90;35.14;100773.19;6099031;23;20397;-79
2023/03/10 06:27:00;;;;;;;24.97;10.83;;;;;;;41.04;34.97;100781.91;6126321;23;20488;-77
2023/03/10 06:29:26;;;;;;;20.33;10.60;;;;;;;40.80;35.29;100766.16;6101046;23;20713;-81
2023/03/10 06:31:52;;;;;;;34.43;12.67;;;;;;;40.85;35.45;100775.28;6096987;23;20453;-79
2023/03/10 06:34:18;;;;;;;20.27;9.33;;;;;;;40.85;35.72;100772.53;6098001;23;20415;-82
2023/03/10 06:36:44;;;;;;;20.13;11.40;;;;;;;41.06;34.46;100778.84;6098214;23;20882;-82
2023/03/10 06:39:10;;;;;;;38.57;11.07;;;;;;;40.83;35.55;100762.00;6099678;23;20397;-81
2023/03/10 06:41:36;;;;;;;18.10;8.73;;;;;;;40.94;35.36;100771.38;6099589;23;20445;-79
2023/03/10 06:44:03;;;;;;;16.13;9.37;;;;;;;41.04;35.27;100768.28;6106005;23;20483;-81
2023/03/10 06:46:29;;;;;;;28.27;11.33;;;;;;;41.15;35.47;100768.72;6127642;23;20416;-82
2023/03/10 06:48:55;;;;;;;30.40;12.20;;;;;;;41.12;35.26;100768.56;6127398;23;20633;-83
2023/03/10 06:51:22;;;;;;;15.57;8.37;;;;;;;40.91;35.45;100765.81;6125678;23;20515;-82
2023/03/10 06:53:48;;;;;;;20.33;9.47;;;;;;;40.74;36.29;100772.91;6125860;23;20715;-79
2023/03/10 06:56:18;;;;;;;23.20;10.70;;;;;;;40.94;35.88;100765.16;6126240;23;20409;-82
2023/03/10 06:58:44;;;;;;;22.90;9.27;;;;;;;40.97;35.82;100762.56;6126538;23;20464;-82
2023/03/10 07:01:31;;;;;;;19.90;8.47;;;;;;;40.82;36.15;100765.81;6127364;23;20760;-82
2023/03/10 07:03:59;;;;;;;17.80;9.40;;;;;;;40.76;35.97;100765.25;6128369;23;20444;-83
2023/03/10 07:06:27;;;;;;;13.03;8.70;;;;;;;41.01;35.54;100768.16;6128171;23;20437;-80
2023/03/10 07:08:53;;;;;;;18.57;8.43;;;;;;;40.96;35.67;100777.31;6129691;23;20381;-91
2023/03/10 07:11:19;;;;;;;16.83;7.90;;;;;;;40.84;36.12;100768.25;6129193;23;20433;-85
2023/03/10 07:13:46;;;;;;;19.27;8.93;;;;;;;40.97;35.93;100780.81;6129601;23;20881;-90
2023/03/10 07:16:37;;;;;;;24.50;9.90;;;;;;;40.94;35.62;100779.53;6156819;23;20378;-88
2023/03/10 07:19:03;;;;;;;13.90;9.07;;;;;;;41.08;35.41;100780.13;6156727;23;20361;-89
2023/03/10 07:21:29;;;;;;;19.00;9.90;;;;;;;41.04;35.96;100783.81;6129386;23;20499;-90
2023/03/10 07:23:55;;;;;;;17.77;9.63;;;;;;;41.20;35.55;100784.84;6127796;23;20869;-82
2023/03/10 07:26:21;;;;;;;21.20;11.67;;;;;;;41.24;36.04;100793.13;6129640;23;20397;-78
2023/03/10 07:28:47;;;;;;;19.97;9.67;;;;;;;41.28;35.58;100796.78;6129151;23;20377;-81
2023/03/10 07:31:14;;;;;;;17.43;8.90;;;;;;;41.28;35.35;100803.03;6153034;23;20421;-84
2023/03/10 07:33:40;;;;;;;16.50;7.90;;;;;;;41.23;34.94;100803.22;6155671;23;20358;-86
2023/03/10 07:36:09;;;;;;;24.83;9.60;;;;;;;41.29;35.07;100809.25;6129930;23;20506;-82
2023/03/10 07:38:35;;;;;;;25.10;9.77;;;;;;;41.08;35.38;100809.25;6129800;23;20765;-86
2023/03/10 07:41:09;;;;;;;17.67;8.80;;;;;;;41.13;35.80;100813.69;6129820;23;20412;-85
2023/03/10 07:43:36;;;;;;;21.73;9.80;;;;;;;40.92;35.86;100822.63;6129263;23;20386;-85
2023/03/10 07:46:07;;;;;;;17.33;8.87;;;;;;;41.07;35.65;100815.81;6129211;23;20500;-84
2023/03/10 07:48:34;;;;;;;21.97;9.60;;;;;;;41.27;35.47;100822.41;6129189;23;20382;-85
2023/03/10 07:51:00;;;;;;;19.03;8.73;;;;;;;41.41;35.49;100827.63;6129472;23;20431;-84
2023/03/10 07:53:26;;;;;;;16.03;9.50;;;;;;;41.19;35.57;100829.53;6129634;23;20408;-87
2023/03/10 07:55:53;;;;;;;17.33;8.30;;;;;;;41.25;35.48;100839.09;6129233;23;20396;-87
2023/03/10 07:58:19;;;;;;;18.97;8.50;;;;;;;41.32;35.52;100847.56;6128871;23;20444;-76
2023/03/10 08:00:45;;;;;;;13.10;8.07;;;;;;;41.50;35.52;100855.63;6128655;23;20382;-77
2023/03/10 08:03:11;;;;;;;25.10;9.30;;;;;;;41.32;35.63;100863.06;6128719;23;20374;-77
2023/03/10 08:05:41;;;;;;;19.60;9.20;;;;;;;41.49;34.88;100867.59;6128127;23;20389;-78
2023/03/10 08:08:07;;;;;;;16.10;9.80;;;;;;;41.44;35.23;100878.72;6128147;23;20468;-80
2023/03/10 08:10:33;;;;;;;24.17;10.40;;;;;;;41.37;35.19;100897.47;6126836;23;20623;-78
2023/03/10 08:12:59;;;;;;;14.17;9.20;;;;;;;41.15;35.30;100901.25;6128480;23;20400;-76
2023/03/10 08:15:26;;;;;;;14.70;8.73;;;;;;;41.29;35.12;100924.38;6128394;23;20403;-76
2023/03/10 08:17:52;;;;;;;23.67;9.33;;;;;;;41.44;34.74;100927.72;6126482;23;20744;-76
2023/03/10 08:20:18;;;;;;;17.57;9.70;;;;;;;41.32;34.52;100928.41;6127978;23;20389;-80
2023/03/10 08:22:44;;;;;;;22.23;10.07;;;;;;;41.42;34.92;100946.28;6127939;23;20389;-80
2023/03/10 08:25:11;;;;;;;13.67;8.50;;;;;;;41.17;35.26;100935.19;6154408;23;20392;-81
2023/03/10 08:27:38;;;;;;;20.50;9.53;;;;;;;41.40;35.31;100941.19;6128345;23;20419;-83
2023/03/10 08:30:05;;;;;;;23.10;10.20;;;;;;;41.43;34.65;100926.09;6153214;23;20495;-79
2023/03/10 08:32:42;;;;;;;19.20;8.60;;;;;;;41.56;34.59;100927.81;6129993;23;20428;-79
2023/03/10 08:42:03;;;;;;;15.47;9.13;;;;;;;41.78;34.61;100953.97;6161564;23;20454;-87
2023/03/10 08:44:32;;;;;;;19.20;9.10;;;;;;;41.73;34.91;100957.63;6154617;23;20385;-88
2023/03/10 08:46:58;;;;;;;14.00;7.90;;;;;;;41.72;34.42;100960.69;6128930;23;20400;-86
2023/03/10 08:49:23;;;;;;;22.67;10.53;;;;;;;41.91;34.36;100963.78;6129342;23;20882;-83
2023/03/10 08:51:49;;;;;;;24.40;11.83;;;;;;;42.00;34.38;100975.44;6128401;23;20432;-81
2023/03/10 08:54:21;;;;;;;17.93;8.60;;;;;;;41.74;34.65;100970.19;6155124;23;20378;-87
2023/03/10 08:56:50;;;;;;;17.97;9.70;;;;;;;41.84;34.59;100982.59;6155412;23;20357;-85
2023/03/10 08:59:18;;;;;;;23.17;8.73;;;;;;;41.92;34.40;100991.84;6127757;23;20381;-80
2023/03/10 09:01:44;;;;;;;15.97;8.63;;;;;;;41.34;35.26;100986.06;6125713;23;20377;-79
2023/03/10 09:04:11;;;;;;;16.50;8.40;;;;;;;41.80;34.89;101001.53;6152280;23;20791;-79
2023/03/10 09:06:37;;;;;;;20.30;8.17;;;;;;;41.81;35.08;100997.69;6152297;23;20368;-83
2023/03/10 09:09:05;;;;;;;20.70;10.50;;;;;;;41.81;34.80;100988.72;6126634;23;20766;-82
2023/03/10 09:11:35;;;;;;;14.43;7.30;;;;;;;41.85;34.34;100995.09;6126585;23;20491;-79
2023/03/10 09:14:01;;;;;;;19.90;10.07;;;;;;;42.02;34.22;100991.47;6126645;23;20377;-79
2023/03/10 09:16:28;;;;;;;18.40;9.83;;;;;;;41.99;34.78;100994.81;6126790;23;20925;-79
2023/03/10 09:18:56;;;;;;;17.90;7.63;;;;;;;42.07;34.26;100999.44;6152611;23;20349;-79
2023/03/10 09:21:22;;;;;;;22.87;8.37;;;;;;;41.66;34.16;100997.44;6152854;23;20354;-82
2023/03/10 09:23:51;;;;;;;16.47;11.30;;;;;;;41.85;34.11;100995.88;6125861;23;20376;-84
2023/03/10 09:26:19;;;;;;;12.17;8.30;;;;;;;41.86;34.10;101010.31;6126808;23;20780;-82
2023/03/10 09:28:48;;;;;;;15.40;8.00;;;;;;;41.95;33.80;100993.91;6128233;23;20432;-82
2023/03/10 09:31:20;;;;;;;13.97;7.47;;;;;;;42.10;33.91;101002.28;6128334;23;20484;-80
2023/03/10 09:33:46;;;;;;;23.23;10.00;;;;;;;42.02;34.22;101005.09;6128246;23;20378;-85
2023/03/10 09:36:12;;;;;;;14.00;7.97;;;;;;;42.21;34.19;101012.81;6128068;23;20541;-83
2023/03/10 09:38:40;;;;;;;13.87;8.80;;;;;;;42.32;33.66;101011.31;6154638;23;20377;-86
2023/03/10 09:41:15;;;;;;;15.97;8.87;;;;;;;42.22;33.94;101000.78;6128183;23;20468;-86
2023/03/10 09:43:52;;;;;;;16.47;8.60;;;;;;;42.09;34.66;100997.16;6128417;23;20395;-79
2023/03/10 09:46:44;;;;;;;15.63;7.60;;;;;;;42.36;33.93;101015.75;6154596;23;20365;-79
2023/03/10 09:49:22;;;;;;;14.07;8.40;;;;;;;41.99;34.43;101006.56;6121549;23;20433;-80
2023/03/10 09:51:50;;;;;;;17.40;6.67;;;;;;;42.29;33.91;101006.50;6127849;23;20487;-80
2023/03/10 09:54:42;;;;;;;15.93;8.70;;;;;;;42.11;34.36;101008.53;6128238;23;20382;-81
2023/03/10 09:57:22;;;;;;;14.27;7.20;;;;;;;42.36;33.86;101002.13;6126927;23;20510;-77
2023/03/10 09:59:54;;;;;;;14.90;7.40;;;;;;;42.46;33.44;101011.00;6126610;23;20409;-80
2023/03/10 10:02:30;;;;;;;16.33;9.70;;;;;;;42.55;33.72;101007.09;6126988;23;20381;-80
2023/03/10 10:05:00;;;;;;;13.10;6.67;;;;;;;42.48;33.66;100998.66;6127970;23;20381;-78
2023/03/10 10:07:31;;;;;;;18.87;8.43;;;;;;;42.61;33.51;100996.81;6126740;23;20416;-82
2023/03/10 10:10:08;;;;;;;13.27;6.60;;;;;;;42.32;33.61;100997.66;6126632;23;20850;-87
2023/03/10 10:12:35;;;;;;;13.57;6.90;;;;;;;42.20;33.57;100998.41;6127768;23;20939;-83
2023/03/10 10:15:13;;;;;;;14.20;6.87;;;;;;;42.29;33.83;100992.88;6127619;23;20393;-81
2023/03/10 10:18:18;;;;;;;14.73;7.90;;;;;;;42.26;33.81;101001.72;6127969;23;20389;-81
2023/03/10 10:20:52;;;;;;;21.83;9.20;;;;;;;42.49;33.70;101008.44;6128459;23;20721;-82
2023/03/10 10:23:23;;;;;;;18.13;7.40;;;;;;;42.48;33.71;101008.75;6128052;23;20428;-80
2023/03/10 10:25:50;;;;;;;27.13;10.80;;;;;;;42.32;34.15;101006.63;6129579;23;20388;-80
2023/03/10 10:28:40;;;;;;;20.13;8.40;;;;;;;42.68;33.66;101007.16;6117917;23;20389;-82
2023/03/10 10:31:19;;;;;;;17.73;7.57;;;;;;;42.32;34.12;101011.31;6129959;23;20975;-82
2023/03/10 10:34:16;;;;;;;14.43;6.10;;;;;;;42.54;34.04;101015.59;6129352;23;20527;-78
2023/03/10 10:36:55;;;;;;;17.03;7.00;;;;;;;42.60;33.84;101017.00;6129212;23;20387;-79
2023/03/10 10:39:36;;;;;;;12.43;7.33;;;;;;;42.57;34.21;101015.75;6127773;23;20385;-83
2023/03/10 10:42:31;;;;;;;15.13;7.47;;;;;;;42.50;33.99;101006.50;6127446;23;20583;-84
2023/03/10 10:45:21;;;;;;;18.53;8.40;;;;;;;42.60;34.02;101012.38;6107429;23;20409;-86
2023/03/10 10:47:54;;;;;;;20.23;6.37;;;;;;;42.65;34.02;101016.81;6127759;23;20389;-84
2023/03/10 10:50:28;;;;;;;12.50;8.27;;;;;;;42.69;33.86;100998.63;6128114;23;20386;-82
2023/03/10 10:53:12;;;;;;;23.27;8.33;;;;;;;42.74;33.43;100992.97;6128708;23;20865;-78
2023/03/10 10:55:40;;;;;;;14.80;6.67;;;;;;;42.71;33.38;100988.19;6155158;23;20361;-78
2023/03/10 10:58:25;;;;;;;13.10;6.90;;;;;;;42.46;33.13;100992.72;6129838;23;20405;-78
2023/03/10 11:00:57;;;;;;;15.07;8.17;;;;;;;42.44;33.48;100991.47;6127211;23;20468;-82
2023/03/10 11:03:33;;;;;;;13.10;6.33;;;;;;;42.31;33.16;100994.16;6127690;23;20734;-78
2023/03/10 11:06:01;;;;;;;17.43;5.87;;;;;;;42.42;33.42;100997.28;6127409;23;20391;-78
2023/03/10 11:08:31;;;;;;;14.40;5.77;;;;;;;42.72;33.63;100991.69;6127405;23;20723;-78
2023/03/10 11:11:07;;;;;;;12.13;7.33;;;;;;;42.91;33.63;101000.19;6127137;23;20921;-78
2023/03/10 11:13:45;;;;;;;16.87;7.37;;;;;;;42.83;33.34;100992.88;6103456;23;20384;-76
2023/03/10 11:16:22;;;;;;;12.97;6.47;;;;;;;42.71;33.49;100995.56;6129405;23;20384;-78
2023/03/10 11:18:57;;;;;;;28.00;7.50;;;;;;;42.55;32.93;101006.28;6129487;23;20377;-78
2023/03/10 11:21:30;;;;;;;11.77;6.00;;;;;;;42.64;32.73;101005.09;6105054;23;20377;-78
2023/03/10 11:24:17;;;;;;;18.67;6.93;;;;;;;42.78;32.63;101002.06;6127803;23;20377;-78
2023/03/10 11:26:57;;;;;;;32.33;14.10;;;;;;;42.51;32.63;100991.72;6127972;23;20876;-78